createdAt,value
2019-05-01T00:02:09.865Z,79.70
2019-05-01T00:04:41.214Z,79.70
2019-05-01T00:07:27.307Z,79.60
2019-05-01T00:09:57.019Z,80.20
2019-05-01T00:12:26.727Z,79.60
2019-05-01T00:14:56.411Z,79.10
2019-05-01T00:17:27.780Z,78.80
2019-05-01T00:19:57.498Z,78.60
2019-05-01T00:22:28.334Z,79.10
2019-05-01T00:24:58.042Z,78.90
2019-05-01T00:27:27.728Z,78.90
2019-05-01T00:29:57.464Z,78.60
2019-05-01T00:32:27.147Z,78.70
2019-05-01T00:34:56.883Z,79.40
2019-05-01T00:37:26.491Z,80.10
2019-05-01T00:39:56.103Z,80.30
2019-05-01T00:42:25.782Z,80.60
2019-05-01T00:44:55.520Z,82.00
2019-05-01T00:47:28.045Z,81.30
2019-05-01T00:49:57.705Z,81.40
2019-05-01T00:52:27.415Z,82.10
2019-05-01T00:55:15.176Z,82.50
2019-05-01T00:57:53.154Z,82.60
2019-05-01T01:00:25.396Z,82.90
2019-05-01T01:02:55.132Z,83.20
2019-05-01T01:05:24.740Z,83.40
2019-05-01T01:07:54.423Z,83.50
2019-05-01T01:10:24.161Z,83.10
2019-05-01T01:12:53.873Z,82.30
2019-05-01T01:15:23.579Z,82.90
2019-05-01T01:17:53.289Z,83.50
2019-05-01T01:20:23.001Z,83.70
2019-05-01T01:22:52.713Z,84.10
2019-05-01T01:25:23.399Z,83.20
2019-05-01T01:27:53.028Z,84.10
2019-05-01T01:30:24.690Z,84.20
2019-05-01T01:32:54.009Z,84.70
2019-05-01T01:35:23.696Z,84.00
2019-05-01T01:37:54.400Z,84.70
2019-05-01T01:40:24.065Z,85.30
2019-05-01T01:42:55.282Z,85.60
2019-05-01T01:45:26.553Z,86.00
2019-05-01T01:48:17.529Z,85.50
2019-05-01T01:50:47.177Z,83.30
2019-05-01T01:53:19.007Z,83.10
2019-05-01T01:55:48.714Z,84.70
2019-05-01T01:58:20.185Z,85.60
2019-05-01T02:01:09.554Z,86.60
2019-05-01T02:03:45.110Z,87.10
2019-05-01T02:06:14.820Z,87.60
2019-05-01T02:08:56.020Z,86.60
2019-05-01T02:11:15.851Z,86.70
2019-05-01T02:13:45.591Z,87.10
2019-05-01T02:16:15.300Z,87.20
2019-05-01T02:18:44.983Z,88.40
2019-05-01T02:21:14.692Z,86.50
2019-05-01T02:23:44.429Z,87.00
2019-05-01T02:26:17.479Z,87.90
2019-05-01T02:29:05.327Z,88.70
2019-05-01T02:31:36.572Z,89.60
2019-05-01T02:34:06.208Z,89.10
2019-05-01T02:36:35.923Z,88.90
2019-05-01T02:39:06.907Z,89.30
2019-05-01T02:41:41.086Z,89.00
2019-05-01T02:44:11.166Z,88.80
2019-05-01T02:46:42.709Z,87.40
2019-05-01T02:49:30.528Z,87.40
2019-05-01T02:52:00.265Z,87.30
2019-05-01T02:54:29.947Z,88.20
2019-05-01T02:57:02.776Z,88.60
2019-05-01T02:59:34.295Z,88.90
2019-05-01T03:02:03.919Z,89.10
2019-05-01T03:04:34.623Z,89.30
2019-05-01T03:07:05.077Z,89.00
2019-05-01T03:09:34.796Z,88.90
2019-05-01T03:12:04.602Z,89.00
2019-05-01T03:14:35.718Z,89.10
2019-05-01T03:17:06.996Z,88.10
2019-05-01T03:19:38.238Z,88.30
2019-05-01T03:22:09.456Z,87.10
2019-05-01T03:24:39.807Z,86.80
2019-05-01T03:27:09.491Z,86.80
2019-05-01T03:29:39.198Z,87.00
2019-05-01T03:32:19.258Z,87.40
2019-05-01T03:34:42.030Z,87.20
2019-05-01T03:37:11.635Z,87.50
2019-05-01T03:39:41.346Z,87.20
2019-05-01T03:42:11.028Z,86.90
2019-05-01T03:44:42.455Z,87.40
2019-05-01T03:47:12.216Z,88.10
2019-05-01T03:49:42.003Z,87.90
2019-05-01T03:52:12.661Z,88.50
2019-05-01T03:54:42.375Z,89.00
2019-05-01T03:57:12.789Z,89.40
2019-05-01T03:59:42.814Z,88.90
2019-05-01T04:02:34.397Z,88.90
2019-05-01T04:05:04.801Z,89.10
2019-05-01T04:07:36.376Z,89.30
2019-05-01T04:10:07.446Z,89.10
2019-05-01T04:12:37.174Z,89.20
2019-05-01T04:15:06.893Z,88.70
2019-05-01T04:17:38.126Z,88.00
2019-05-01T04:20:07.836Z,88.00
2019-05-01T04:22:37.548Z,88.10
2019-05-01T04:25:07.360Z,88.50
2019-05-01T04:27:38.605Z,88.40
2019-05-01T04:30:10.060Z,88.00
2019-05-01T04:32:52.006Z,87.00
2019-05-01T04:35:21.841Z,86.00
2019-05-01T04:37:51.856Z,85.20
2019-05-01T04:40:21.567Z,85.50
2019-05-01T04:42:51.306Z,86.00
2019-05-01T04:45:22.012Z,86.30
2019-05-01T04:47:51.619Z,86.10
2019-05-01T04:50:21.362Z,86.30
2019-05-01T04:52:51.143Z,86.60
2019-05-01T04:55:23.513Z,84.90
2019-05-01T04:57:52.125Z,85.00
2019-05-01T05:00:22.910Z,84.30
2019-05-01T05:03:04.421Z,83.80
2019-05-01T05:05:25.555Z,83.70
2019-05-01T05:07:55.368Z,83.80
2019-05-01T05:10:25.077Z,83.20
2019-05-01T05:12:56.325Z,83.90
2019-05-01T05:15:27.547Z,84.20
2019-05-01T05:17:57.282Z,84.30
2019-05-01T05:20:27.971Z,83.80
2019-05-01T05:22:57.702Z,84.20
2019-05-01T05:25:28.541Z,83.70
2019-05-01T05:27:58.273Z,83.30
2019-05-01T05:30:27.984Z,82.40
2019-05-01T05:32:59.547Z,82.60
2019-05-01T05:35:29.117Z,82.20
2019-05-01T05:38:00.391Z,83.10
2019-05-01T05:40:31.608Z,82.00
2019-05-01T05:43:01.344Z,81.40
2019-05-01T05:45:31.055Z,81.70
2019-05-01T05:48:01.768Z,82.10
2019-05-01T05:50:50.751Z,80.40
2019-05-01T05:53:24.630Z,79.80
2019-05-01T05:55:56.149Z,80.90
2019-05-01T05:58:43.944Z,79.50
2019-05-01T06:01:24.482Z,79.50
2019-05-01T06:03:55.755Z,80.30
2019-05-01T06:06:32.226Z,79.90
2019-05-01T06:09:01.934Z,80.20
2019-05-01T06:11:50.999Z,79.30
2019-05-01T06:14:22.322Z,78.90
2019-05-01T06:16:54.077Z,78.70
2019-05-01T06:19:34.772Z,79.70
2019-05-01T06:22:22.608Z,79.30
2019-05-01T06:25:21.625Z,80.00
2019-05-01T06:27:44.723Z,78.80
2019-05-01T06:30:13.912Z,78.80
2019-05-01T06:32:43.564Z,77.90
2019-05-01T06:35:13.275Z,76.70
2019-05-01T06:37:55.884Z,78.40
2019-05-01T06:40:42.802Z,76.70
2019-05-01T06:43:20.195Z,77.50
2019-05-01T06:45:51.670Z,74.20
2019-05-01T06:48:29.780Z,73.10
2019-05-01T06:51:18.753Z,73.50
2019-05-01T06:53:48.728Z,73.90
2019-05-01T06:56:18.411Z,74.90
2019-05-01T06:58:51.103Z,72.00
2019-05-01T07:01:23.850Z,71.30
2019-05-01T07:04:03.395Z,71.90
2019-05-01T07:06:25.991Z,73.00
2019-05-01T07:08:53.339Z,71.30
2019-05-01T07:11:23.089Z,71.50
2019-05-01T07:13:55.566Z,71.00
2019-05-01T07:16:24.081Z,70.70
2019-05-01T07:18:57.992Z,69.80
2019-05-01T07:21:32.309Z,70.10
2019-05-01T07:23:57.949Z,70.20
2019-05-01T07:26:27.659Z,68.30
2019-05-01T07:29:09.772Z,66.00
2019-05-01T07:31:38.297Z,64.70
2019-05-01T07:34:16.401Z,66.40
2019-05-01T07:36:39.296Z,65.10
2019-05-01T07:39:09.892Z,65.00
2019-05-01T07:41:41.327Z,61.20
2019-05-01T07:44:29.966Z,63.50
2019-05-01T07:47:03.593Z,63.80
2019-05-01T07:49:43.337Z,61.80
2019-05-01T07:52:17.181Z,59.90
2019-05-01T07:54:47.146Z,59.70
2019-05-01T07:57:16.606Z,61.00
2019-05-01T07:59:46.318Z,59.70
2019-05-01T08:02:16.028Z,60.40
2019-05-01T08:04:46.634Z,60.20
2019-05-01T08:07:16.343Z,61.50
2019-05-01T08:09:50.191Z,59.20
2019-05-01T08:12:18.911Z,58.00
2019-05-01T08:14:52.509Z,58.90
2019-05-01T08:17:21.559Z,58.30
2019-05-01T08:19:54.007Z,58.40
2019-05-01T08:22:26.301Z,58.50
2019-05-01T08:24:58.751Z,58.30
2019-05-01T08:27:44.358Z,59.50
2019-05-01T08:30:27.695Z,56.00
2019-05-01T08:33:14.693Z,57.70
2019-05-01T08:35:42.163Z,55.10
2019-05-01T08:38:11.847Z,53.30
2019-05-01T08:40:41.563Z,52.70
2019-05-01T08:43:13.781Z,51.00
2019-05-01T08:46:00.870Z,52.70
2019-05-01T08:48:35.727Z,53.50
2019-05-01T08:51:06.409Z,50.40
2019-05-01T08:53:36.141Z,48.40
2019-05-01T08:56:05.854Z,51.20
2019-05-01T08:58:36.533Z,47.80
2019-05-01T09:01:10.922Z,50.60
2019-05-01T09:03:38.056Z,48.90
2019-05-01T09:06:07.769Z,54.00
2019-05-01T09:08:37.476Z,49.60
2019-05-01T09:11:10.033Z,48.90
2019-05-01T09:13:39.661Z,49.90
2019-05-01T09:16:09.372Z,47.70
2019-05-01T09:18:39.056Z,43.20
2019-05-01T09:21:09.740Z,43.80
2019-05-01T09:23:39.500Z,45.00
2019-05-01T09:26:14.628Z,45.00
2019-05-01T09:28:44.902Z,46.20
2019-05-01T09:31:17.346Z,44.50
2019-05-01T09:33:47.069Z,39.80
2019-05-01T09:36:16.780Z,41.00
2019-05-01T09:38:49.883Z,39.60
2019-05-01T09:41:17.839Z,39.60
2019-05-01T09:43:48.524Z,40.30
2019-05-01T09:46:18.182Z,42.90
2019-05-01T09:48:48.198Z,40.90
2019-05-01T09:51:36.032Z,43.60
2019-05-01T09:54:09.756Z,43.70
2019-05-01T09:56:41.476Z,42.50
2019-05-01T09:59:12.577Z,42.40
2019-05-01T10:01:43.236Z,43.80
2019-05-01T10:04:13.959Z,42.90
2019-05-01T10:06:47.544Z,43.00
2019-05-01T10:09:16.723Z,43.30
2019-05-01T10:11:46.206Z,45.60
2019-05-01T10:14:15.920Z,46.90
2019-05-01T10:16:45.627Z,45.20
2019-05-01T10:19:15.311Z,44.60
2019-05-01T10:21:45.046Z,42.00
2019-05-01T10:24:14.754Z,44.50
2019-05-01T10:26:45.975Z,42.50
2019-05-01T10:29:29.309Z,42.00
2019-05-01T10:32:21.515Z,41.50
2019-05-01T10:34:57.241Z,43.10
2019-05-01T10:37:28.331Z,38.50
2019-05-01T10:40:00.344Z,38.40
2019-05-01T10:42:31.826Z,40.80
2019-05-01T10:45:01.487Z,40.90
2019-05-01T10:47:31.171Z,39.70
2019-05-01T10:50:00.883Z,39.70
2019-05-01T10:52:30.618Z,38.20
2019-05-01T10:55:00.330Z,37.60
2019-05-01T10:57:30.011Z,37.50
2019-05-01T10:59:59.748Z,38.40
2019-05-01T11:02:29.458Z,38.00
2019-05-01T11:04:59.169Z,35.90
2019-05-01T11:07:29.797Z,34.80
2019-05-01T11:09:59.482Z,30.90
2019-05-01T11:12:29.229Z,28.90
2019-05-01T11:14:58.932Z,28.30
2019-05-01T11:17:28.643Z,29.30
2019-05-01T11:19:58.350Z,30.00
2019-05-01T11:22:28.034Z,29.80
2019-05-01T11:24:57.743Z,31.40
2019-05-01T11:27:27.481Z,29.90
2019-05-01T11:29:57.191Z,31.80
2019-05-01T11:32:32.346Z,30.80
2019-05-01T11:35:19.012Z,29.70
2019-05-01T11:37:53.228Z,29.20
2019-05-01T11:40:27.139Z,29.10
2019-05-01T11:42:58.330Z,28.60
2019-05-01T11:45:28.016Z,27.80
2019-05-01T11:47:59.421Z,30.00
2019-05-01T11:50:29.047Z,32.70
2019-05-01T11:52:58.784Z,31.40
2019-05-01T11:55:28.467Z,30.30
2019-05-01T11:57:58.203Z,29.90
2019-05-01T12:00:27.812Z,31.50
2019-05-01T12:02:57.521Z,30.70
2019-05-01T12:05:27.231Z,29.80
2019-05-01T12:07:58.661Z,27.00
2019-05-01T12:10:28.290Z,27.40
2019-05-01T12:12:57.975Z,29.20
2019-05-01T12:15:27.711Z,26.50
2019-05-01T12:17:57.401Z,27.10
2019-05-01T12:20:27.132Z,29.00
2019-05-01T12:22:56.815Z,28.20
2019-05-01T12:25:26.557Z,26.40
2019-05-01T12:27:58.078Z,23.80
2019-05-01T12:30:27.814Z,26.70
2019-05-01T12:32:58.493Z,26.00
2019-05-01T12:35:28.261Z,25.70
2019-05-01T12:37:59.505Z,24.30
2019-05-01T12:40:29.215Z,25.50
2019-05-01T12:42:58.924Z,26.60
2019-05-01T12:45:28.608Z,28.00
2019-05-01T12:47:59.884Z,30.10
2019-05-01T12:50:29.597Z,29.90
2019-05-01T12:53:03.788Z,29.20
2019-05-01T12:55:51.412Z,27.80
2019-05-01T12:58:21.147Z,26.70
2019-05-01T13:00:52.413Z,26.40
2019-05-01T13:03:22.105Z,24.10
2019-05-01T13:05:52.758Z,24.90
2019-05-01T13:08:22.419Z,24.20
2019-05-01T13:10:52.126Z,26.50
2019-05-01T13:13:21.867Z,24.90
2019-05-01T13:15:51.547Z,23.10
2019-05-01T13:18:22.536Z,27.30
2019-05-01T13:20:52.299Z,27.30
2019-05-01T13:23:22.039Z,28.40
2019-05-01T13:25:53.179Z,27.90
2019-05-01T13:28:39.786Z,28.20
2019-05-01T13:31:20.045Z,31.30
2019-05-01T13:33:49.754Z,29.90
2019-05-01T13:36:19.438Z,31.40
2019-05-01T13:38:50.170Z,28.70
2019-05-01T13:41:22.755Z,25.50
2019-05-01T13:43:52.179Z,26.60
2019-05-01T13:46:21.889Z,23.40
2019-05-01T13:48:51.598Z,24.10
2019-05-01T13:51:21.309Z,22.60
2019-05-01T13:53:51.018Z,23.40
2019-05-01T13:56:21.668Z,24.20
2019-05-01T13:58:53.217Z,24.90
2019-05-01T14:01:23.120Z,26.20
2019-05-01T14:03:53.807Z,27.10
2019-05-01T14:06:23.563Z,28.50
2019-05-01T14:08:53.275Z,29.70
2019-05-01T14:11:22.955Z,28.60
2019-05-01T14:13:54.460Z,27.40
2019-05-01T14:16:24.247Z,25.10
2019-05-01T14:18:53.855Z,24.60
2019-05-01T14:21:25.101Z,24.60
2019-05-01T14:24:02.387Z,25.90
2019-05-01T14:26:33.301Z,25.00
2019-05-01T14:29:04.764Z,25.10
2019-05-01T14:31:35.382Z,26.10
2019-05-01T14:34:05.090Z,24.50
2019-05-01T14:36:34.829Z,24.60
2019-05-01T14:39:07.118Z,25.90
2019-05-01T14:41:39.338Z,25.10
2019-05-01T14:44:10.104Z,22.60
2019-05-01T14:46:39.786Z,23.90
2019-05-01T14:49:09.525Z,21.10
2019-05-01T14:51:39.258Z,22.10
2019-05-01T14:54:08.942Z,24.40
2019-05-01T14:56:38.655Z,23.40
2019-05-01T14:59:08.364Z,25.00
2019-05-01T15:01:38.078Z,25.60
2019-05-01T15:04:07.793Z,26.10
2019-05-01T15:06:37.495Z,27.70
2019-05-01T15:09:08.374Z,29.30
2019-05-01T15:11:39.372Z,31.50
2019-05-01T15:14:26.797Z,32.90
2019-05-01T15:17:09.200Z,30.70
2019-05-01T15:19:40.349Z,31.70
2019-05-01T15:22:10.059Z,32.60
2019-05-01T15:24:39.742Z,33.40
2019-05-01T15:27:09.455Z,32.20
2019-05-01T15:29:40.476Z,31.90
2019-05-01T15:32:11.195Z,34.20
2019-05-01T15:34:40.865Z,32.50
2019-05-01T15:37:11.536Z,30.00
2019-05-01T15:39:48.884Z,29.20
2019-05-01T15:42:34.978Z,28.60
2019-05-01T15:45:05.562Z,26.70
2019-05-01T15:47:35.321Z,25.40
2019-05-01T15:50:07.259Z,28.00
2019-05-01T15:52:36.166Z,29.90
2019-05-01T15:55:07.494Z,29.30
2019-05-01T15:57:37.206Z,28.40
2019-05-01T16:00:09.910Z,28.30
2019-05-01T16:02:40.135Z,27.40
2019-05-01T16:05:10.870Z,29.00
2019-05-01T16:07:40.578Z,29.30
2019-05-01T16:10:11.824Z,28.00
2019-05-01T16:12:43.071Z,28.40
2019-05-01T16:15:15.319Z,28.00
2019-05-01T16:17:45.022Z,27.80
2019-05-01T16:20:16.848Z,28.50
2019-05-01T16:22:46.084Z,28.20
2019-05-01T16:25:17.850Z,32.30
2019-05-01T16:27:47.579Z,29.30
2019-05-01T16:30:18.826Z,29.90
2019-05-01T16:32:48.534Z,30.70
2019-05-01T16:35:18.142Z,33.50
2019-05-01T16:37:48.827Z,34.50
2019-05-01T16:40:25.856Z,34.30
2019-05-01T16:42:55.538Z,32.10
2019-05-01T16:45:25.581Z,34.30
2019-05-01T16:47:55.293Z,34.60
2019-05-01T16:50:26.533Z,35.10
2019-05-01T16:52:56.250Z,31.90
2019-05-01T16:55:25.960Z,32.30
2019-05-01T16:57:56.641Z,34.60
2019-05-01T17:00:57.947Z,35.50
2019-05-01T17:03:47.186Z,32.90
2019-05-01T17:06:21.509Z,34.50
2019-05-01T17:08:55.515Z,35.80
2019-05-01T17:14:18.923Z,35.50
2019-05-01T17:16:48.611Z,37.20
2019-05-01T17:19:18.344Z,37.60
2019-05-01T17:21:48.053Z,39.50
2019-05-01T17:24:17.764Z,38.90
2019-05-01T17:26:48.439Z,38.20
2019-05-01T17:29:18.107Z,38.90
2019-05-01T17:31:47.791Z,39.90
2019-05-01T17:34:17.499Z,42.00
2019-05-01T17:36:47.206Z,41.20
2019-05-01T17:39:17.537Z,42.80
2019-05-01T17:41:47.273Z,44.90
2019-05-01T17:44:20.111Z,45.30
2019-05-01T17:46:50.049Z,45.20
2019-05-01T17:49:19.652Z,46.50
2019-05-01T17:51:49.361Z,46.10
2019-05-01T17:54:19.098Z,45.80
2019-05-01T17:56:53.854Z,46.40
2019-05-01T17:59:20.030Z,46.50
2019-05-01T18:01:53.860Z,46.60
2019-05-01T18:04:26.594Z,49.00
2019-05-01T18:06:56.351Z,49.80
2019-05-01T18:09:25.960Z,48.40
2019-05-01T18:11:56.677Z,49.30
2019-05-01T18:14:26.304Z,49.80
2019-05-01T18:16:56.012Z,50.50
2019-05-01T18:19:25.724Z,52.30
2019-05-01T18:21:56.941Z,52.90
2019-05-01T18:24:29.430Z,52.80
2019-05-01T18:27:07.651Z,51.90
2019-05-01T18:29:49.270Z,52.20
2019-05-01T18:32:20.562Z,53.30
2019-05-01T18:34:50.300Z,52.70
2019-05-01T18:37:31.273Z,53.90
2019-05-01T18:40:02.012Z,53.80
2019-05-01T18:42:31.717Z,56.30
2019-05-01T18:45:01.429Z,55.20
2019-05-01T18:47:31.215Z,54.10
2019-05-01T18:50:00.950Z,54.00
2019-05-01T18:52:30.659Z,55.80
2019-05-01T18:55:00.369Z,55.60
2019-05-01T18:57:30.156Z,57.00
2019-05-01T18:59:59.894Z,57.10
2019-05-01T19:02:29.679Z,55.90
2019-05-01T19:04:59.418Z,56.30
2019-05-01T19:07:29.125Z,56.20
2019-05-01T19:09:58.835Z,56.60
2019-05-01T19:12:31.180Z,56.90
2019-05-01T19:15:00.405Z,56.80
2019-05-01T19:17:33.004Z,56.50
2019-05-01T19:20:02.387Z,57.20
2019-05-01T19:22:33.504Z,57.50
2019-05-01T19:25:04.345Z,58.50
2019-05-01T19:27:34.050Z,57.80
2019-05-01T19:30:09.652Z,59.60
2019-05-01T19:32:39.538Z,59.70
2019-05-01T19:35:09.359Z,59.30
2019-05-01T19:37:40.085Z,59.60
2019-05-01T19:40:10.717Z,59.10
2019-05-01T19:42:40.427Z,58.80
2019-05-01T19:45:10.066Z,59.00
2019-05-01T19:47:39.748Z,58.80
2019-05-01T19:50:11.027Z,59.90
2019-05-01T19:52:40.806Z,59.20
2019-05-01T19:55:10.490Z,59.60
2019-05-01T19:57:40.223Z,59.50
2019-05-01T20:00:09.933Z,60.40
2019-05-01T20:02:40.566Z,60.50
2019-05-01T20:05:11.157Z,60.20
2019-05-01T20:07:41.291Z,61.70
2019-05-01T20:10:11.307Z,62.10
2019-05-01T20:12:41.940Z,64.00
2019-05-01T20:15:11.751Z,65.10
2019-05-01T20:17:41.489Z,66.50
2019-05-01T20:20:11.171Z,66.20
2019-05-01T20:22:42.839Z,66.70
2019-05-01T20:25:14.684Z,66.00
2019-05-01T20:27:47.745Z,66.30
2019-05-01T20:30:14.829Z,66.80
2019-05-01T20:32:44.538Z,66.80
2019-05-01T20:35:15.281Z,66.50
2019-05-01T20:37:50.843Z,66.50
2019-05-01T20:40:20.554Z,68.40
2019-05-01T20:42:50.339Z,68.10
2019-05-01T20:45:20.184Z,69.50
2019-05-01T20:47:49.888Z,69.90
2019-05-01T20:50:19.571Z,70.00
2019-05-01T20:52:49.308Z,70.20
2019-05-01T20:55:18.993Z,70.80
2019-05-01T20:57:49.835Z,70.80
2019-05-01T21:00:20.281Z,71.20
2019-05-01T21:02:49.991Z,71.30
2019-05-01T21:05:21.210Z,71.00
2019-05-01T21:07:56.577Z,70.60
2019-05-01T21:10:25.546Z,71.20
2019-05-01T21:12:56.719Z,71.20
2019-05-01T21:15:26.809Z,70.90
2019-05-01T21:17:56.751Z,70.90
2019-05-01T21:20:26.461Z,71.20
2019-05-01T21:22:56.172Z,71.70
2019-05-01T21:25:25.882Z,71.90
2019-05-01T21:27:55.591Z,73.00
2019-05-01T21:30:25.301Z,74.00
2019-05-01T21:32:58.571Z,73.60
2019-05-01T21:35:26.260Z,73.40
2019-05-01T21:37:55.969Z,72.80
2019-05-01T21:40:37.721Z,73.30
2019-05-01T21:42:57.026Z,73.20
2019-05-01T21:45:26.739Z,73.50
2019-05-01T21:47:56.450Z,74.20
2019-05-01T21:50:26.544Z,74.20
2019-05-01T21:52:58.029Z,74.80
2019-05-01T21:55:30.262Z,74.10
2019-05-01T21:57:58.947Z,73.60
2019-05-01T22:00:31.122Z,74.60
2019-05-01T22:03:02.490Z,74.70
2019-05-01T22:05:34.724Z,74.30
2019-05-01T22:08:05.094Z,74.80
2019-05-01T22:10:35.853Z,74.00
2019-05-01T22:13:05.528Z,73.80
2019-05-01T22:15:36.747Z,74.30
2019-05-01T22:18:10.760Z,74.50
2019-05-01T22:20:58.416Z,75.00
2019-05-01T22:23:32.837Z,75.70
2019-05-01T22:26:04.545Z,75.90
2019-05-01T22:28:41.471Z,76.30
2019-05-01T22:31:16.731Z,76.00
2019-05-01T22:33:48.674Z,76.00
2019-05-01T22:36:18.487Z,76.70
2019-05-01T22:38:48.095Z,77.00
2019-05-01T22:41:17.778Z,77.30
2019-05-01T22:43:47.387Z,76.70
2019-05-01T22:46:18.658Z,77.00
2019-05-01T22:48:48.267Z,77.10
2019-05-01T22:51:21.438Z,77.00
2019-05-01T22:53:52.399Z,77.90
2019-05-01T22:56:22.079Z,78.20
2019-05-01T22:58:53.560Z,78.00
2019-05-01T23:01:23.268Z,78.20
2019-05-01T23:03:55.451Z,78.10
2019-05-01T23:06:25.018Z,78.60
2019-05-01T23:08:54.729Z,78.20
2019-05-01T23:11:26.002Z,77.20
2019-05-01T23:13:55.709Z,76.90
2019-05-01T23:16:28.808Z,77.50
2019-05-01T23:18:59.947Z,77.20
2019-05-01T23:21:29.522Z,77.50
2019-05-01T23:24:01.908Z,78.30
2019-05-01T23:26:30.506Z,78.50
2019-05-01T23:29:00.216Z,78.90
2019-05-01T23:31:30.541Z,78.60
2019-05-01T23:34:00.252Z,78.80
2019-05-01T23:36:30.941Z,78.10
2019-05-01T23:39:01.697Z,78.70
2019-05-01T23:41:45.304Z,78.10
2019-05-01T23:44:05.427Z,77.70
2019-05-01T23:46:35.122Z,78.10
2019-05-01T23:49:05.815Z,78.90
2019-05-01T23:51:35.493Z,79.10
2019-05-01T23:54:05.175Z,79.00
2019-05-01T23:56:35.277Z,80.20
2019-05-01T23:59:06.026Z,79.60
